sensor_id;sensor_type;location;lat;lon;timestamp;noise_LAeq;noise_LA_min;noise_LA_max;noise_LA01;noise_LA95
37279;Laerm;7458;49.002;8.472;2023-03-14T00:02:10;57.33;41.46;84.61;;
37279;Laerm;7458;49.002;8.472;2023-03-14T00:04:37;45.73;42.16;67.53;;
37279;Laerm;7458;49.002;8.472;2023-03-14T00:07:03;46.30;41.82;74.55;;
37279;Laerm;7458;49.002;8.472;2023-03-14T00:09:29;45.04;41.61;52.10;;
37279;Laerm;7458;49.002;8.472;2023-03-14T00:11:56;45.43;40.89;59.14;;
37279;Laerm;7458;49.002;8.472;2023-03-14T00:14:22;47.17;41.22;69.43;;
37279;Laerm;7458;49.002;8.472;2023-03-14T00:16:47;45.42;41.61;51.99;;
37279;Laerm;7458;49.002;8.472;2023-03-14T00:19:13;44.28;40.43;51.22;;
37279;Laerm;7458;49.002;8.472;2023-03-14T00:21:39;45.15;41.96;57.83;;
37279;Laerm;7458;49.002;8.472;2023-03-14T00:24:06;44.68;40.98;62.48;;
37279;Laerm;7458;49.002;8.472;2023-03-14T00:26:31;53.81;42.16;77.66;;
37279;Laerm;7458;49.002;8.472;2023-03-14T00:28:58;44.45;40.13;60.21;;
37279;Laerm;7458;49.002;8.472;2023-03-14T00:31:24;47.69;41.96;72.50;;
37279;Laerm;7458;49.002;8.472;2023-03-14T00:33:52;49.19;41.68;79.93;;
37279;Laerm;7458;49.002;8.472;2023-03-14T00:36:19;53.78;41.46;81.80;;
37279;Laerm;7458;49.002;8.472;2023-03-14T00:38:49;55.27;41.68;83.04;;
37279;Laerm;7458;49.002;8.472;2023-03-14T00:41:20;45.72;42.22;62.92;;
37279;Laerm;7458;49.002;8.472;2023-03-14T00:43:48;46.77;41.38;71.01;;
37279;Laerm;7458;49.002;8.472;2023-03-14T00:46:14;46.12;41.46;65.01;;
37279;Laerm;7458;49.002;8.472;2023-03-14T00:48:40;50.81;41.06;70.02;;
37279;Laerm;7458;49.002;8.472;2023-03-14T00:51:08;56.31;42.30;88.17;;
37279;Laerm;7458;49.002;8.472;2023-03-14T00:53:38;45.17;41.96;53.60;;
37279;Laerm;7458;49.002;8.472;2023-03-14T00:56:07;44.48;41.41;58.32;;
37279;Laerm;7458;49.002;8.472;2023-03-14T00:58:33;46.93;42.71;71.77;;
37279;Laerm;7458;49.002;8.472;2023-03-14T01:01:05;47.01;42.59;70.95;;
37279;Laerm;7458;49.002;8.472;2023-03-14T01:03:31;46.36;42.29;65.81;;
37279;Laerm;7458;49.002;8.472;2023-03-14T01:06:17;45.68;41.96;57.64;;
37279;Laerm;7458;49.002;8.472;2023-03-14T01:08:44;45.89;41.61;53.65;;
37279;Laerm;7458;49.002;8.472;2023-03-14T01:11:19;56.20;42.71;86.47;;
37279;Laerm;7458;49.002;8.472;2023-03-14T01:13:45;46.26;42.16;63.08;;
37279;Laerm;7458;49.002;8.472;2023-03-14T01:16:15;46.45;42.09;63.74;;
37279;Laerm;7458;49.002;8.472;2023-03-14T01:18:44;50.08;42.29;73.93;;
37279;Laerm;7458;49.002;8.472;2023-03-14T01:21:23;51.38;41.89;69.91;;
37279;Laerm;7458;49.002;8.472;2023-03-14T01:23:50;46.77;42.76;58.73;;
37279;Laerm;7458;49.002;8.472;2023-03-14T01:26:20;46.22;42.88;63.55;;
37279;Laerm;7458;49.002;8.472;2023-03-14T01:28:48;45.94;42.65;53.51;;
37279;Laerm;7458;49.002;8.472;2023-03-14T01:31:15;46.15;42.88;64.21;;
37279;Laerm;7458;49.002;8.472;2023-03-14T01:33:42;46.06;42.76;57.81;;
37279;Laerm;7458;49.002;8.472;2023-03-14T01:36:09;51.00;42.22;80.09;;
37279;Laerm;7458;49.002;8.472;2023-03-14T01:38:37;47.46;39.46;73.53;;
37279;Laerm;7458;49.002;8.472;2023-03-14T01:41:04;45.59;42.82;58.95;;
37279;Laerm;7458;49.002;8.472;2023-03-14T01:43:31;44.81;41.89;49.69;;
37279;Laerm;7458;49.002;8.472;2023-03-14T01:51:14;45.25;41.14;60.85;;
37279;Laerm;7458;49.002;8.472;2023-03-14T01:53:44;45.31;41.38;60.42;;
37279;Laerm;7458;49.002;8.472;2023-03-14T01:56:13;45.75;42.59;56.32;;
37279;Laerm;7458;49.002;8.472;2023-03-14T01:58:44;45.41;42.09;61.75;;
37279;Laerm;7458;49.002;8.472;2023-03-14T02:01:11;47.42;41.96;71.94;;
37279;Laerm;7458;49.002;8.472;2023-03-14T02:03:54;47.12;42.03;69.06;;
37279;Laerm;7458;49.002;8.472;2023-03-14T02:06:26;49.11;42.22;78.21;;
37279;Laerm;7458;49.002;8.472;2023-03-14T02:08:55;45.84;42.98;52.82;;
37279;Laerm;7458;49.002;8.472;2023-03-14T02:11:21;47.69;42.47;70.65;;
37279;Laerm;7458;49.002;8.472;2023-03-14T02:13:49;55.98;42.59;83.12;;
37279;Laerm;7458;49.002;8.472;2023-03-14T02:16:16;50.73;42.47;74.32;;
37279;Laerm;7458;49.002;8.472;2023-03-14T02:18:41;46.78;42.47;65.56;;
37279;Laerm;7458;49.002;8.472;2023-03-14T02:29:09;56.31;42.74;81.58;;
37279;Laerm;7458;49.002;8.472;2023-03-14T02:31:35;46.14;43.19;57.80;;
37279;Laerm;7458;49.002;8.472;2023-03-14T02:34:02;52.87;43.09;78.53;;
37279;Laerm;7458;49.002;8.472;2023-03-14T02:36:30;56.24;43.29;81.20;;
37279;Laerm;7458;49.002;8.472;2023-03-14T02:39:15;51.47;43.34;80.44;;
37279;Laerm;7458;49.002;8.472;2023-03-14T02:41:45;60.38;42.29;87.50;;
37279;Laerm;7458;49.002;8.472;2023-03-14T02:44:11;51.36;43.14;80.38;;
37279;Laerm;7458;49.002;8.472;2023-03-14T02:46:37;61.24;43.05;91.25;;
37279;Laerm;7458;49.002;8.472;2023-03-14T02:49:08;49.84;42.59;72.31;;
37279;Laerm;7458;49.002;8.472;2023-03-14T02:51:35;48.68;41.89;62.55;;
37279;Laerm;7458;49.002;8.472;2023-03-14T02:54:03;49.94;41.38;62.43;;
37279;Laerm;7458;49.002;8.472;2023-03-14T02:56:29;54.61;43.39;82.54;;
37279;Laerm;7458;49.002;8.472;2023-03-14T02:58:54;54.47;43.68;79.58;;
37279;Laerm;7458;49.002;8.472;2023-03-14T03:01:20;48.33;43.63;69.62;;
37279;Laerm;7458;49.002;8.472;2023-03-14T03:03:46;49.42;43.44;63.74;;
37279;Laerm;7458;49.002;8.472;2023-03-14T03:06:12;49.52;43.34;66.02;;
37279;Laerm;7458;49.002;8.472;2023-03-14T03:08:37;49.19;44.01;66.47;;
37279;Laerm;7458;49.002;8.472;2023-03-14T03:11:04;49.30;43.54;64.74;;
37279;Laerm;7458;49.002;8.472;2023-03-14T03:13:30;53.92;42.76;74.05;;
37279;Laerm;7458;49.002;8.472;2023-03-14T03:15:55;51.22;43.54;69.58;;
37279;Laerm;7458;49.002;8.472;2023-03-14T03:18:21;52.44;43.09;79.25;;
37279;Laerm;7458;49.002;8.472;2023-03-14T03:20:47;49.48;43.58;65.42;;
37279;Laerm;7458;49.002;8.472;2023-03-14T03:23:13;55.91;43.63;82.94;;
37279;Laerm;7458;49.002;8.472;2023-03-14T03:25:39;51.32;44.31;67.41;;
37279;Laerm;7458;49.002;8.472;2023-03-14T03:28:05;51.50;43.90;71.24;;
37279;Laerm;7458;49.002;8.472;2023-03-14T03:30:38;51.90;43.86;72.68;;
37279;Laerm;7458;49.002;8.472;2023-03-14T03:33:03;51.92;43.68;67.19;;
37279;Laerm;7458;49.002;8.472;2023-03-14T03:35:29;49.59;43.72;68.79;;
37279;Laerm;7458;49.002;8.472;2023-03-14T03:37:55;52.18;43.63;76.42;;
37279;Laerm;7458;49.002;8.472;2023-03-14T03:40:20;47.51;43.39;66.67;;
37279;Laerm;7458;49.002;8.472;2023-03-14T03:42:46;47.23;44.11;57.86;;
37279;Laerm;7458;49.002;8.472;2023-03-14T03:45:12;47.62;42.53;71.96;;
37279;Laerm;7458;49.002;8.472;2023-03-14T03:47:38;53.47;43.99;84.95;;
37279;Laerm;7458;49.002;8.472;2023-03-14T03:50:04;47.03;43.63;51.81;;
37279;Laerm;7458;49.002;8.472;2023-03-14T03:52:30;48.93;43.39;70.09;;
37279;Laerm;7458;49.002;8.472;2023-03-14T03:54:56;52.45;43.19;74.84;;
37279;Laerm;7458;49.002;8.472;2023-03-14T03:57:21;51.75;44.54;74.67;;
37279;Laerm;7458;49.002;8.472;2023-03-14T03:59:47;58.48;43.58;75.28;;
37279;Laerm;7458;49.002;8.472;2023-03-14T04:02:13;59.76;43.86;77.72;;
37279;Laerm;7458;49.002;8.472;2023-03-14T04:04:38;57.76;42.93;75.98;;
37279;Laerm;7458;49.002;8.472;2023-03-14T04:07:05;55.46;43.72;76.59;;
37279;Laerm;7458;49.002;8.472;2023-03-14T04:09:31;51.93;44.03;77.72;;
37279;Laerm;7458;49.002;8.472;2023-03-14T04:11:57;48.51;44.03;67.34;;
37279;Laerm;7458;49.002;8.472;2023-03-14T04:14:23;63.55;43.58;80.10;;
37279;Laerm;7458;49.002;8.472;2023-03-14T04:16:48;64.86;43.68;80.87;;
37279;Laerm;7458;49.002;8.472;2023-03-14T04:19:14;60.82;44.31;78.26;;
37279;Laerm;7458;49.002;8.472;2023-03-14T04:21:40;58.51;44.62;75.49;;
37279;Laerm;7458;49.002;8.472;2023-03-14T04:24:10;51.98;44.83;70.95;;
37279;Laerm;7458;49.002;8.472;2023-03-14T04:26:36;48.54;43.63;62.40;;
37279;Laerm;7458;49.002;8.472;2023-03-14T04:29:02;52.99;44.39;81.14;;
37279;Laerm;7458;49.002;8.472;2023-03-14T04:31:28;54.37;44.19;82.12;;
37279;Laerm;7458;49.002;8.472;2023-03-14T04:33:53;55.17;44.58;78.47;;
37279;Laerm;7458;49.002;8.472;2023-03-14T04:36:19;54.49;44.80;75.88;;
37279;Laerm;7458;49.002;8.472;2023-03-14T04:38:45;60.08;44.35;85.82;;
37279;Laerm;7458;49.002;8.472;2023-03-14T04:41:11;58.62;44.62;82.94;;
37279;Laerm;7458;49.002;8.472;2023-03-14T04:43:36;55.27;44.07;72.16;;
37279;Laerm;7458;49.002;8.472;2023-03-14T04:46:02;58.45;45.17;73.48;;
37279;Laerm;7458;49.002;8.472;2023-03-14T04:48:29;57.17;45.07;77.07;;
37279;Laerm;7458;49.002;8.472;2023-03-14T04:50:55;52.65;45.07;68.50;;
37279;Laerm;7458;49.002;8.472;2023-03-14T04:53:21;53.27;44.90;77.96;;
37279;Laerm;7458;49.002;8.472;2023-03-14T04:55:53;54.00;44.80;77.11;;
37279;Laerm;7458;49.002;8.472;2023-03-14T04:58:19;52.06;45.45;75.46;;
37279;Laerm;7458;49.002;8.472;2023-03-14T05:00:45;52.57;45.97;73.86;;
37279;Laerm;7458;49.002;8.472;2023-03-14T05:03:11;49.77;45.01;66.04;;
37279;Laerm;7458;49.002;8.472;2023-03-14T05:05:37;53.49;44.87;77.81;;
37279;Laerm;7458;49.002;8.472;2023-03-14T05:08:03;52.86;45.63;78.22;;
37279;Laerm;7458;49.002;8.472;2023-03-14T05:10:29;52.18;45.80;75.60;;
37279;Laerm;7458;49.002;8.472;2023-03-14T05:12:54;55.84;45.27;78.41;;
37279;Laerm;7458;49.002;8.472;2023-03-14T05:15:20;53.68;46.05;69.50;;
37279;Laerm;7458;49.002;8.472;2023-03-14T05:17:46;52.57;45.63;68.57;;
37279;Laerm;7458;49.002;8.472;2023-03-14T05:20:12;53.90;45.45;74.18;;
37279;Laerm;7458;49.002;8.472;2023-03-14T05:22:41;53.65;45.97;76.29;;
37279;Laerm;7458;49.002;8.472;2023-03-14T05:25:08;55.14;46.02;77.23;;
37279;Laerm;7458;49.002;8.472;2023-03-14T05:27:34;54.75;45.57;73.04;;
37279;Laerm;7458;49.002;8.472;2023-03-14T05:30:00;58.79;45.73;79.18;;
37279;Laerm;7458;49.002;8.472;2023-03-14T05:32:26;52.24;46.28;78.77;;
37279;Laerm;7458;49.002;8.472;2023-03-14T05:34:52;50.14;46.28;57.97;;
37279;Laerm;7458;49.002;8.472;2023-03-14T05:37:18;51.85;46.73;73.35;;
37279;Laerm;7458;49.002;8.472;2023-03-14T05:39:44;54.06;46.52;79.64;;
37279;Laerm;7458;49.002;8.472;2023-03-14T05:42:09;63.81;47.02;83.60;;
37279;Laerm;7458;49.002;8.472;2023-03-14T05:44:35;58.02;47.12;80.03;;
37279;Laerm;7458;49.002;8.472;2023-03-14T05:47:01;57.64;47.14;79.05;;
37279;Laerm;7458;49.002;8.472;2023-03-14T05:49:27;59.87;47.91;85.41;;
37279;Laerm;7458;49.002;8.472;2023-03-14T05:51:52;53.49;46.07;68.72;;
37279;Laerm;7458;49.002;8.472;2023-03-14T05:54:18;57.67;46.40;81.14;;
37279;Laerm;7458;49.002;8.472;2023-03-14T05:56:44;52.42;46.20;76.95;;
37279;Laerm;7458;49.002;8.472;2023-03-14T05:59:09;65.59;47.44;91.73;;
37279;Laerm;7458;49.002;8.472;2023-03-14T06:01:35;55.08;46.80;72.90;;
37279;Laerm;7458;49.002;8.472;2023-03-14T06:04:01;56.53;45.54;82.60;;
37279;Laerm;7458;49.002;8.472;2023-03-14T06:06:27;54.56;45.77;71.85;;
37279;Laerm;7458;49.002;8.472;2023-03-14T06:08:52;55.32;47.08;76.46;;
37279;Laerm;7458;49.002;8.472;2023-03-14T06:11:18;58.47;46.45;82.12;;
37279;Laerm;7458;49.002;8.472;2023-03-14T06:13:44;51.92;46.43;70.75;;
37279;Laerm;7458;49.002;8.472;2023-03-14T06:16:13;52.32;46.13;75.19;;
37279;Laerm;7458;49.002;8.472;2023-03-14T06:18:39;53.45;46.91;69.94;;
37279;Laerm;7458;49.002;8.472;2023-03-14T06:21:06;54.33;45.91;79.65;;
37279;Laerm;7458;49.002;8.472;2023-03-14T06:23:31;54.10;46.50;67.67;;
37279;Laerm;7458;49.002;8.472;2023-03-14T06:25:58;60.75;45.48;88.32;;
37279;Laerm;7458;49.002;8.472;2023-03-14T06:28:24;53.58;45.54;69.49;;
37279;Laerm;7458;49.002;8.472;2023-03-14T06:30:49;54.46;46.48;72.21;;
37279;Laerm;7458;49.002;8.472;2023-03-14T06:33:15;54.09;46.69;67.21;;
37279;Laerm;7458;49.002;8.472;2023-03-14T06:35:41;59.80;47.36;85.81;;
37279;Laerm;7458;49.002;8.472;2023-03-14T06:38:07;65.04;47.22;88.01;;
37279;Laerm;7458;49.002;8.472;2023-03-14T06:40:32;54.59;46.13;76.95;;
37279;Laerm;7458;49.002;8.472;2023-03-14T06:42:58;57.95;46.71;73.81;;
37279;Laerm;7458;49.002;8.472;2023-03-14T06:45:24;54.04;46.35;83.35;;
37279;Laerm;7458;49.002;8.472;2023-03-14T06:47:49;56.20;46.82;71.24;;
37279;Laerm;7458;49.002;8.472;2023-03-14T06:50:15;54.42;47.46;69.43;;
37279;Laerm;7458;49.002;8.472;2023-03-14T06:52:41;56.76;46.88;72.66;;
37279;Laerm;7458;49.002;8.472;2023-03-14T06:55:11;55.77;46.80;74.54;;
37279;Laerm;7458;49.002;8.472;2023-03-14T06:57:37;57.07;46.48;70.55;;
37279;Laerm;7458;49.002;8.472;2023-03-14T07:00:04;64.31;47.08;94.43;;
37279;Laerm;7458;49.002;8.472;2023-03-14T07:02:31;56.25;47.12;80.35;;
37279;Laerm;7458;49.002;8.472;2023-03-14T07:04:56;53.43;45.77;73.26;;
37279;Laerm;7458;49.002;8.472;2023-03-14T07:07:22;54.41;46.52;71.07;;
37279;Laerm;7458;49.002;8.472;2023-03-14T07:09:49;53.37;46.10;79.99;;
37279;Laerm;7458;49.002;8.472;2023-03-14T07:12:14;54.00;46.66;67.57;;
37279;Laerm;7458;49.002;8.472;2023-03-14T07:14:40;55.27;47.38;70.58;;
37279;Laerm;7458;49.002;8.472;2023-03-14T07:17:06;53.57;45.89;77.82;;
37279;Laerm;7458;49.002;8.472;2023-03-14T07:19:31;54.02;47.06;68.86;;
37279;Laerm;7458;49.002;8.472;2023-03-14T07:21:57;55.19;46.13;72.96;;
37279;Laerm;7458;49.002;8.472;2023-03-14T07:24:23;58.27;45.97;77.38;;
37279;Laerm;7458;49.002;8.472;2023-03-14T07:26:49;51.95;46.55;73.69;;
37279;Laerm;7458;49.002;8.472;2023-03-14T07:29:14;56.23;47.10;71.14;;
37279;Laerm;7458;49.002;8.472;2023-03-14T07:31:40;57.86;46.66;73.56;;
37279;Laerm;7458;49.002;8.472;2023-03-14T07:34:06;55.31;46.64;71.70;;
37279;Laerm;7458;49.002;8.472;2023-03-14T07:36:32;61.77;45.75;90.04;;
37279;Laerm;7458;49.002;8.472;2023-03-14T07:38:58;55.56;45.54;70.07;;
37279;Laerm;7458;49.002;8.472;2023-03-14T07:41:23;56.81;46.40;71.98;;
37279;Laerm;7458;49.002;8.472;2023-03-14T07:43:49;57.75;46.07;84.63;;
37279;Laerm;7458;49.002;8.472;2023-03-14T07:46:21;69.96;46.73;98.53;;
37279;Laerm;7458;49.002;8.472;2023-03-14T07:48:47;55.13;46.73;71.14;;
37279;Laerm;7458;49.002;8.472;2023-03-14T07:51:13;54.00;47.36;69.59;;
37279;Laerm;7458;49.002;8.472;2023-03-14T07:53:40;58.66;45.60;80.23;;
37279;Laerm;7458;49.002;8.472;2023-03-14T07:56:06;56.76;46.66;72.84;;
37279;Laerm;7458;49.002;8.472;2023-03-14T07:58:32;58.28;46.13;88.87;;
37279;Laerm;7458;49.002;8.472;2023-03-14T08:01:02;57.15;46.38;75.88;;
37279;Laerm;7458;49.002;8.472;2023-03-14T08:03:28;55.88;46.45;77.30;;
37279;Laerm;7458;49.002;8.472;2023-03-14T08:05:54;57.27;45.69;78.47;;
37279;Laerm;7458;49.002;8.472;2023-03-14T08:08:19;50.54;44.94;69.69;;
37279;Laerm;7458;49.002;8.472;2023-03-14T08:10:46;53.99;45.01;70.99;;
37279;Laerm;7458;49.002;8.472;2023-03-14T08:13:12;55.11;45.30;80.35;;
37279;Laerm;7458;49.002;8.472;2023-03-14T08:15:38;61.38;45.72;78.78;;
37279;Laerm;7458;49.002;8.472;2023-03-14T08:18:05;57.17;45.45;79.58;;
37279;Laerm;7458;49.002;8.472;2023-03-14T08:20:31;51.99;45.20;72.61;;
37279;Laerm;7458;49.002;8.472;2023-03-14T08:22:59;53.29;46.07;70.36;;
37279;Laerm;7458;49.002;8.472;2023-03-14T08:25:26;54.01;46.33;80.04;;
37279;Laerm;7458;49.002;8.472;2023-03-14T08:27:53;54.98;45.89;69.97;;
37279;Laerm;7458;49.002;8.472;2023-03-14T08:30:21;55.44;49.02;69.71;;
37279;Laerm;7458;49.002;8.472;2023-03-14T08:32:47;54.98;47.38;69.45;;
37279;Laerm;7458;49.002;8.472;2023-03-14T08:35:13;57.41;46.62;85.51;;
37279;Laerm;7458;49.002;8.472;2023-03-14T08:37:42;52.53;46.87;67.08;;
37279;Laerm;7458;49.002;8.472;2023-03-14T08:40:09;55.08;46.05;72.65;;
37279;Laerm;7458;49.002;8.472;2023-03-14T08:42:40;59.06;46.62;83.01;;
37279;Laerm;7458;49.002;8.472;2023-03-14T08:45:08;59.07;46.47;78.51;;
37279;Laerm;7458;49.002;8.472;2023-03-14T08:47:35;56.35;45.83;74.66;;
37279;Laerm;7458;49.002;8.472;2023-03-14T08:50:03;56.04;45.60;76.11;;
37279;Laerm;7458;49.002;8.472;2023-03-14T08:52:30;57.20;46.91;77.14;;
37279;Laerm;7458;49.002;8.472;2023-03-14T08:54:56;52.62;45.63;71.13;;
37279;Laerm;7458;49.002;8.472;2023-03-14T08:57:22;52.76;46.15;67.46;;
37279;Laerm;7458;49.002;8.472;2023-03-14T08:59:56;59.37;46.07;85.89;;
37279;Laerm;7458;49.002;8.472;2023-03-14T09:02:24;57.44;45.91;73.14;;
37279;Laerm;7458;49.002;8.472;2023-03-14T09:04:50;57.12;46.52;80.83;;
37279;Laerm;7458;49.002;8.472;2023-03-14T09:07:17;68.91;47.42;98.50;;
37279;Laerm;7458;49.002;8.472;2023-03-14T09:09:42;56.40;47.20;82.54;;
37279;Laerm;7458;49.002;8.472;2023-03-14T09:12:08;52.03;45.48;74.33;;
37279;Laerm;7458;49.002;8.472;2023-03-14T09:14:34;52.83;46.52;76.27;;
37279;Laerm;7458;49.002;8.472;2023-03-14T09:17:00;53.05;45.48;67.81;;
37279;Laerm;7458;49.002;8.472;2023-03-14T09:19:25;55.96;46.89;83.08;;
37279;Laerm;7458;49.002;8.472;2023-03-14T09:21:51;59.51;46.43;83.74;;
37279;Laerm;7458;49.002;8.472;2023-03-14T09:24:17;66.36;45.72;99.35;;
37279;Laerm;7458;49.002;8.472;2023-03-14T09:26:43;57.21;46.30;78.39;;
37279;Laerm;7458;49.002;8.472;2023-03-14T09:29:09;60.14;47.04;82.48;;
37279;Laerm;7458;49.002;8.472;2023-03-14T09:31:35;52.51;45.83;76.32;;
37279;Laerm;7458;49.002;8.472;2023-03-14T09:34:01;59.94;48.00;78.49;;
37279;Laerm;7458;49.002;8.472;2023-03-14T09:36:27;56.77;45.39;72.91;;
37279;Laerm;7458;49.002;8.472;2023-03-14T09:38:53;61.63;46.28;90.96;;
37279;Laerm;7458;49.002;8.472;2023-03-14T09:41:29;55.87;46.40;77.27;;
37279;Laerm;7458;49.002;8.472;2023-03-14T09:44:09;57.49;47.04;73.43;;
37279;Laerm;7458;49.002;8.472;2023-03-14T09:46:38;59.45;46.40;82.85;;
37279;Laerm;7458;49.002;8.472;2023-03-14T09:49:34;58.58;46.15;84.59;;
37279;Laerm;7458;49.002;8.472;2023-03-14T09:55:00;58.65;47.98;84.64;;
37279;Laerm;7458;49.002;8.472;2023-03-14T09:57:35;60.80;45.75;86.68;;
37279;Laerm;7458;49.002;8.472;2023-03-14T10:02:42;56.72;46.34;74.77;;
37279;Laerm;7458;49.002;8.472;2023-03-14T10:05:18;60.45;46.52;80.80;;
37279;Laerm;7458;49.002;8.472;2023-03-14T10:07:44;65.98;47.05;94.03;;
37279;Laerm;7458;49.002;8.472;2023-03-14T10:10:18;53.92;47.18;76.86;;
37279;Laerm;7458;49.002;8.472;2023-03-14T10:12:54;59.24;46.10;82.58;;
37279;Laerm;7458;49.002;8.472;2023-03-14T10:15:34;68.37;45.99;96.66;;
37279;Laerm;7458;49.002;8.472;2023-03-14T10:18:03;60.05;47.16;79.78;;
37279;Laerm;7458;49.002;8.472;2023-03-14T10:20:34;65.19;47.52;91.16;;
37279;Laerm;7458;49.002;8.472;2023-03-14T10:23:24;60.04;48.12;82.80;;
37279;Laerm;7458;49.002;8.472;2023-03-14T10:26:13;58.14;46.71;73.37;;
37279;Laerm;7458;49.002;8.472;2023-03-14T10:28:52;58.80;46.28;78.08;;
37279;Laerm;7458;49.002;8.472;2023-03-14T10:31:25;63.52;47.14;87.23;;
37279;Laerm;7458;49.002;8.472;2023-03-14T10:34:25;58.58;47.46;83.98;;
37279;Laerm;7458;49.002;8.472;2023-03-14T10:36:57;56.44;46.62;81.74;;
37279;Laerm;7458;49.002;8.472;2023-03-14T10:42:24;63.21;48.28;90.01;;
37279;Laerm;7458;49.002;8.472;2023-03-14T10:44:58;56.29;47.44;77.12;;
37279;Laerm;7458;49.002;8.472;2023-03-14T10:47:27;55.89;46.38;74.08;;
37279;Laerm;7458;49.002;8.472;2023-03-14T10:50:29;55.22;47.38;77.99;;
37279;Laerm;7458;49.002;8.472;2023-03-14T10:52:57;53.58;47.16;76.87;;
37279;Laerm;7458;49.002;8.472;2023-03-14T10:55:26;57.94;47.34;81.14;;
37279;Laerm;7458;49.002;8.472;2023-03-14T10:57:52;60.91;47.84;79.08;;
37279;Laerm;7458;49.002;8.472;2023-03-14T11:00:22;57.67;48.25;77.57;;
37279;Laerm;7458;49.002;8.472;2023-03-14T11:05:38;53.91;46.33;70.37;;
37279;Laerm;7458;49.002;8.472;2023-03-14T11:08:17;52.25;46.93;65.32;;
37279;Laerm;7458;49.002;8.472;2023-03-14T11:10:52;59.10;48.05;75.96;;
37279;Laerm;7458;49.002;8.472;2023-03-14T11:13:40;54.83;47.40;78.62;;
37279;Laerm;7458;49.002;8.472;2023-03-14T11:16:28;60.45;46.50;91.67;;
37279;Laerm;7458;49.002;8.472;2023-03-14T11:22:13;58.23;46.59;79.17;;
37279;Laerm;7458;49.002;8.472;2023-03-14T11:27:43;57.72;48.12;81.12;;
37279;Laerm;7458;49.002;8.472;2023-03-14T11:30:40;56.31;47.38;80.04;;
37279;Laerm;7458;49.002;8.472;2023-03-14T11:33:39;55.42;47.50;72.77;;
37279;Laerm;7458;49.002;8.472;2023-03-14T11:36:16;54.24;49.08;80.35;;
37279;Laerm;7458;49.002;8.472;2023-03-14T11:38:49;57.48;49.78;76.58;;
37279;Laerm;7458;49.002;8.472;2023-03-14T11:43:59;59.84;51.01;76.97;;
37279;Laerm;7458;49.002;8.472;2023-03-14T11:46:36;66.20;52.41;91.86;;
37279;Laerm;7458;49.002;8.472;2023-03-14T11:49:32;62.97;49.43;82.16;;
37279;Laerm;7458;49.002;8.472;2023-03-14T11:57:44;56.83;50.92;74.53;;
37279;Laerm;7458;49.002;8.472;2023-03-14T12:00:23;57.18;49.73;72.19;;
37279;Laerm;7458;49.002;8.472;2023-03-14T12:09:02;60.02;49.30;84.93;;
37279;Laerm;7458;49.002;8.472;2023-03-14T12:11:41;58.76;48.36;76.97;;
37279;Laerm;7458;49.002;8.472;2023-03-14T12:14:33;57.89;48.43;75.42;;
37279;Laerm;7458;49.002;8.472;2023-03-14T12:17:26;58.77;49.19;80.42;;
37279;Laerm;7458;49.002;8.472;2023-03-14T12:23:10;56.96;49.28;75.93;;
37279;Laerm;7458;49.002;8.472;2023-03-14T12:25:37;53.11;48.34;66.97;;
37279;Laerm;7458;49.002;8.472;2023-03-14T12:28:30;60.39;46.84;79.56;;
37279;Laerm;7458;49.002;8.472;2023-03-14T12:45:23;61.78;49.04;85.05;;
37279;Laerm;7458;49.002;8.472;2023-03-14T12:48:22;59.24;47.83;82.00;;
37279;Laerm;7458;49.002;8.472;2023-03-14T12:51:11;52.21;46.89;63.34;;
37279;Laerm;7458;49.002;8.472;2023-03-14T12:57:05;56.35;49.30;74.62;;
37279;Laerm;7458;49.002;8.472;2023-03-14T12:59:59;58.11;48.29;77.20;;
37279;Laerm;7458;49.002;8.472;2023-03-14T13:02:42;57.96;48.08;75.01;;
37279;Laerm;7458;49.002;8.472;2023-03-14T13:05:20;55.87;48.32;76.73;;
37279;Laerm;7458;49.002;8.472;2023-03-14T13:13:17;54.73;47.28;73.60;;
37279;Laerm;7458;49.002;8.472;2023-03-14T13:15:47;54.37;47.00;68.56;;
37279;Laerm;7458;49.002;8.472;2023-03-14T13:18:42;53.33;48.07;71.69;;
37279;Laerm;7458;49.002;8.472;2023-03-14T13:21:34;58.83;47.74;79.29;;
37279;Laerm;7458;49.002;8.472;2023-03-14T13:24:05;55.80;48.05;74.54;;
37279;Laerm;7458;49.002;8.472;2023-03-14T13:26:42;55.24;48.18;78.17;;
37279;Laerm;7458;49.002;8.472;2023-03-14T13:29:24;56.05;47.90;73.33;;
37279;Laerm;7458;49.002;8.472;2023-03-14T13:31:54;57.19;46.13;73.20;;
37279;Laerm;7458;49.002;8.472;2023-03-14T13:34:28;58.05;47.22;78.37;;
37279;Laerm;7458;49.002;8.472;2023-03-14T13:36:55;51.91;45.86;75.75;;
37279;Laerm;7458;49.002;8.472;2023-03-14T13:39:23;55.49;46.38;73.38;;
37279;Laerm;7458;49.002;8.472;2023-03-14T13:41:59;55.76;46.43;75.08;;
37279;Laerm;7458;49.002;8.472;2023-03-14T13:44:32;57.43;46.25;83.55;;
37279;Laerm;7458;49.002;8.472;2023-03-14T13:47:02;57.15;47.12;73.11;;
37279;Laerm;7458;49.002;8.472;2023-03-14T13:49:32;56.25;48.31;72.81;;
37279;Laerm;7458;49.002;8.472;2023-03-14T13:52:01;70.47;48.45;99.59;;
37279;Laerm;7458;49.002;8.472;2023-03-14T13:54:27;56.16;49.29;76.27;;
37279;Laerm;7458;49.002;8.472;2023-03-14T13:57:03;55.53;47.22;68.40;;
37279;Laerm;7458;49.002;8.472;2023-03-14T13:59:33;54.44;48.48;70.84;;
37279;Laerm;7458;49.002;8.472;2023-03-14T14:02:06;57.85;48.46;79.10;;
37279;Laerm;7458;49.002;8.472;2023-03-14T14:04:37;56.75;50.26;75.80;;
37279;Laerm;7458;49.002;8.472;2023-03-14T14:07:10;52.39;47.68;61.86;;
37279;Laerm;7458;49.002;8.472;2023-03-14T14:09:45;57.88;46.64;75.64;;
37279;Laerm;7458;49.002;8.472;2023-03-14T14:15:07;53.40;47.32;71.30;;
37279;Laerm;7458;49.002;8.472;2023-03-14T14:17:50;56.87;46.07;69.17;;
37279;Laerm;7458;49.002;8.472;2023-03-14T14:20:30;55.37;46.43;73.30;;
37279;Laerm;7458;49.002;8.472;2023-03-14T14:23:03;56.78;48.02;79.88;;
37279;Laerm;7458;49.002;8.472;2023-03-14T14:25:30;54.28;47.54;74.99;;
37279;Laerm;7458;49.002;8.472;2023-03-14T14:27:56;55.83;48.18;74.48;;
37279;Laerm;7458;49.002;8.472;2023-03-14T14:30:30;54.93;46.76;68.98;;
37279;Laerm;7458;49.002;8.472;2023-03-14T14:33:21;54.26;46.73;71.14;;
37279;Laerm;7458;49.002;8.472;2023-03-14T14:35:57;60.66;47.80;83.85;;
37279;Laerm;7458;49.002;8.472;2023-03-14T14:38:24;58.23;48.63;82.21;;
37279;Laerm;7458;49.002;8.472;2023-03-14T14:40:56;63.61;47.08;89.10;;
37279;Laerm;7458;49.002;8.472;2023-03-14T14:43:28;55.76;47.10;80.29;;
37279;Laerm;7458;49.002;8.472;2023-03-14T14:45:57;57.27;49.04;78.35;;
37279;Laerm;7458;49.002;8.472;2023-03-14T14:48:27;56.07;47.55;81.64;;
37279;Laerm;7458;49.002;8.472;2023-03-14T14:51:04;56.58;49.20;80.52;;
37279;Laerm;7458;49.002;8.472;2023-03-14T14:53:43;58.84;48.45;85.78;;
37279;Laerm;7458;49.002;8.472;2023-03-14T14:56:26;55.01;47.30;78.41;;
37279;Laerm;7458;49.002;8.472;2023-03-14T14:59:00;58.16;47.20;80.11;;
37279;Laerm;7458;49.002;8.472;2023-03-14T15:01:38;60.81;48.66;85.65;;
37279;Laerm;7458;49.002;8.472;2023-03-14T15:04:13;57.63;48.05;75.37;;
37279;Laerm;7458;49.002;8.472;2023-03-14T15:06:43;61.58;48.12;89.87;;
37279;Laerm;7458;49.002;8.472;2023-03-14T15:09:11;58.96;49.52;83.98;;
37279;Laerm;7458;49.002;8.472;2023-03-14T15:11:37;56.64;48.54;74.41;;
37279;Laerm;7458;49.002;8.472;2023-03-14T15:14:03;55.72;47.75;69.95;;
37279;Laerm;7458;49.002;8.472;2023-03-14T15:16:31;54.34;46.28;69.42;;
37279;Laerm;7458;49.002;8.472;2023-03-14T15:19:08;65.64;47.22;88.97;;
37279;Laerm;7458;49.002;8.472;2023-03-14T15:21:35;54.55;46.55;71.06;;
37279;Laerm;7458;49.002;8.472;2023-03-14T15:24:00;55.15;46.28;71.30;;
37279;Laerm;7458;49.002;8.472;2023-03-14T15:26:27;54.25;45.75;71.67;;